Morse, Texas
Current Conditions -  °F | °C
As of 9:51 AM on Thursday 30 Oct 2014 (Local Time) from KBGD Reporting Station
Clear Clear  
Wind Chill: 55°   Ceiling: Unl
Heat Index: 55°   Visibility: 10mi
Dew Point: 34°   Wind: 14mph
Humidity: 45%   Direction: 10°N
Pressure: 30.24"   Gusts: NA
Location:  36.06°N, 101.48°W
Report Text: KBGD 301451Z AUTO 01012KT 10SM CLR 13/01 A3024 RMK AO2 SLP222 T01280011 53029
Loading
Personal Weather Stations






























Interactive Weather Map
Tropical Storm Tracking
New forecast layout! Learn more

10-Day Weather Forecast

Advertisements
Track Severe Weather on mobile